Time;durP1;ratioP1;P1;durP2;ratioP2;P2;SDS_P1;SDS_P2;PMS_P1;PMS_P2;Temp;Humidity;BMP_temperature;BMP_pressure;BME280_temperature;BME280_humidity;BME280_pressure;Samples;Min_cycle;Max_cycle;Signal;HPM_P1;HPM_P2
2023/10/22 00:02:05;;;;;;;7.90;7.10;;;;;;;;;;5096240;28;20579;-75
2023/10/22 00:04:32;;;;;;;7.43;6.73;;;;;;;;;;5088034;28;20199;-75
2023/10/22 00:06:59;;;;;;;7.97;7.27;;;;;;;;;;5097956;28;20204;-77
2023/10/22 00:09:27;;;;;;;9.30;7.63;;;;;;;;;;5067339;28;20235;-78
2023/10/22 00:11:54;;;;;;;9.03;7.53;;;;;;;;;;5078462;28;20659;-77
2023/10/22 00:14:21;;;;;;;8.73;7.93;;;;;;;;;;5094563;27;20874;-77
2023/10/22 00:16:48;;;;;;;9.07;8.10;;;;;;;;;;5098451;28;20234;-76
2023/10/22 00:19:16;;;;;;;9.77;8.87;;;;;;;;;;5094380;28;20225;-77
2023/10/22 00:21:43;;;;;;;9.20;8.33;;;;;;;;;;5096637;28;20246;-76
2023/10/22 00:24:10;;;;;;;9.27;8.30;;;;;;;;;;5100150;28;20221;-75
2023/10/22 00:26:39;;;;;;;9.17;8.23;;;;;;;;;;5095458;28;20608;-78
2023/10/22 00:29:07;;;;;;;8.87;7.90;;;;;;;;;;5094161;27;20262;-75
2023/10/22 00:31:34;;;;;;;9.17;8.27;;;;;;;;;;5088131;28;20200;-76
2023/10/22 00:34:01;;;;;;;10.00;9.07;;;;;;;;;;5089889;28;20201;-76
2023/10/22 00:36:29;;;;;;;9.93;8.93;;;;;;;;;;5098005;28;20199;-73
2023/10/22 00:38:56;;;;;;;9.83;8.93;;;;;;;;;;5095808;28;20208;-74
2023/10/22 00:41:23;;;;;;;10.53;9.53;;;;;;;;;;5102814;28;20210;-74
2023/10/22 00:43:51;;;;;;;10.33;9.40;;;;;;;;;;5098256;28;20208;-73
2023/10/22 00:46:22;;;;;;;10.40;9.40;;;;;;;;;;5096884;28;20292;-75
2023/10/22 00:48:50;;;;;;;10.70;9.60;;;;;;;;;;5096014;28;20590;-74
2023/10/22 00:51:18;;;;;;;10.93;9.83;;;;;;;;;;5102455;28;20199;-74
2023/10/22 00:53:46;;;;;;;11.10;10.00;;;;;;;;;;5094773;28;20542;-74
2023/10/22 00:56:13;;;;;;;10.57;9.30;;;;;;;;;;5102191;28;20204;-74
2023/10/22 00:58:42;;;;;;;10.57;9.47;;;;;;;;;;5099599;28;20200;-76
2023/10/22 01:01:10;;;;;;;11.10;9.97;;;;;;;;;;5098874;28;20216;-73
2023/10/22 01:03:38;;;;;;;10.60;9.60;;;;;;;;;;5096974;28;20200;-74
2023/10/22 01:06:05;;;;;;;10.77;9.67;;;;;;;;;;5074982;28;20201;-75
2023/10/22 01:08:33;;;;;;;11.43;9.17;;;;;;;;;;5092910;28;20316;-76
2023/10/22 01:11:05;;;;;;;10.87;9.70;;;;;;;;;;5091124;28;20217;-74
2023/10/22 01:13:32;;;;;;;10.20;9.07;;;;;;;;;;5091475;28;20234;-74
2023/10/22 01:16:00;;;;;;;9.57;8.67;;;;;;;;;;5091640;28;20249;-74
2023/10/22 01:18:27;;;;;;;10.23;9.23;;;;;;;;;;5091307;28;20197;-73
2023/10/22 01:20:55;;;;;;;12.20;9.37;;;;;;;;;;5091350;28;20224;-75
2023/10/22 01:23:23;;;;;;;10.43;9.33;;;;;;;;;;5091565;28;20209;-74
2023/10/22 01:25:51;;;;;;;9.70;8.70;;;;;;;;;;5091288;28;20242;-73
2023/10/22 01:28:18;;;;;;;12.50;9.90;;;;;;;;;;5092289;28;20204;-74
2023/10/22 01:30:45;;;;;;;10.87;9.70;;;;;;;;;;5095094;28;20220;-74
2023/10/22 01:33:12;;;;;;;10.10;9.10;;;;;;;;;;5095310;28;20250;-75
2023/10/22 01:35:40;;;;;;;10.33;9.40;;;;;;;;;;5095018;28;20292;-76
2023/10/22 01:38:08;;;;;;;12.53;10.20;;;;;;;;;;5095528;28;20201;-74
2023/10/22 01:40:35;;;;;;;11.50;9.70;;;;;;;;;;5094905;28;20225;-75
2023/10/22 01:43:03;;;;;;;11.33;10.17;;;;;;;;;;5095445;28;20209;-74
2023/10/22 01:45:30;;;;;;;11.47;9.93;;;;;;;;;;5095373;28;20726;-75
2023/10/22 01:47:58;;;;;;;12.80;10.97;;;;;;;;;;5094821;28;20208;-76
2023/10/22 01:50:25;;;;;;;14.57;11.10;;;;;;;;;;5099651;27;20238;-76
2023/10/22 01:52:52;;;;;;;14.73;11.63;;;;;;;;;;5113393;27;20196;-76
2023/10/22 01:55:20;;;;;;;13.27;11.87;;;;;;;;;;5101770;28;20659;-75
2023/10/22 01:57:47;;;;;;;13.53;11.63;;;;;;;;;;5102098;28;20207;-76
2023/10/22 02:00:17;;;;;;;14.87;11.43;;;;;;;;;;5106076;27;20711;-76
2023/10/22 02:02:44;;;;;;;12.17;10.90;;;;;;;;;;5108008;28;20683;-75
2023/10/22 02:05:11;;;;;;;13.77;10.90;;;;;;;;;;5109763;27;20205;-76
2023/10/22 02:07:39;;;;;;;11.87;10.67;;;;;;;;;;5093648;28;20204;-75
2023/10/22 02:10:08;;;;;;;14.10;12.03;;;;;;;;;;5100420;28;20233;-75
2023/10/22 02:12:36;;;;;;;12.27;10.57;;;;;;;;;;5090464;28;20200;-75
2023/10/22 02:15:04;;;;;;;14.43;12.20;;;;;;;;;;5081999;28;20216;-77
2023/10/22 02:17:32;;;;;;;13.33;11.33;;;;;;;;;;5111008;28;20221;-78
2023/10/22 02:19:59;;;;;;;12.97;10.57;;;;;;;;;;5107956;28;20220;-79
2023/10/22 02:22:26;;;;;;;13.93;10.43;;;;;;;;;;5102811;28;20759;-77
2023/10/22 02:24:54;;;;;;;12.57;10.57;;;;;;;;;;5084503;28;20200;-78
2023/10/22 02:27:21;;;;;;;15.20;11.07;;;;;;;;;;5112034;28;20204;-80
2023/10/22 02:29:48;;;;;;;11.63;10.47;;;;;;;;;;5107184;28;20239;-79
2023/10/22 02:32:16;;;;;;;11.50;10.30;;;;;;;;;;5113207;28;20196;-79
2023/10/22 02:34:43;;;;;;;10.70;9.67;;;;;;;;;;5115860;27;20192;-78
2023/10/22 02:37:10;;;;;;;12.77;9.77;;;;;;;;;;5110897;27;20191;-79
2023/10/22 02:39:37;;;;;;;11.43;10.33;;;;;;;;;;5099624;27;20227;-77
2023/10/22 02:42:05;;;;;;;12.20;10.13;;;;;;;;;;5106623;27;20249;-76
2023/10/22 02:44:32;;;;;;;11.00;9.53;;;;;;;;;;5109021;28;20299;-76
2023/10/22 02:47:00;;;;;;;11.77;9.47;;;;;;;;;;5110340;27;20252;-76
2023/10/22 02:49:27;;;;;;;12.53;9.80;;;;;;;;;;5099674;27;20293;-78
2023/10/22 02:51:55;;;;;;;10.33;9.17;;;;;;;;;;5098354;28;20205;-77
2023/10/22 02:54:22;;;;;;;10.60;9.50;;;;;;;;;;5104637;28;20204;-76
2023/10/22 02:56:49;;;;;;;12.10;9.73;;;;;;;;;;5086621;28;20208;-79
2023/10/22 02:59:16;;;;;;;12.33;9.60;;;;;;;;;;5110947;28;20259;-79
2023/10/22 03:01:44;;;;;;;11.73;9.40;;;;;;;;;;5105355;27;20226;-76
2023/10/22 03:04:11;;;;;;;13.27;9.37;;;;;;;;;;5084770;27;20296;-75
2023/10/22 03:06:39;;;;;;;10.60;9.40;;;;;;;;;;5106683;27;20207;-78
2023/10/22 03:09:07;;;;;;;10.80;9.67;;;;;;;;;;5108396;28;20664;-78
2023/10/22 03:11:34;;;;;;;10.93;9.83;;;;;;;;;;5107664;27;20204;-79
2023/10/22 03:14:01;;;;;;;12.97;10.03;;;;;;;;;;5111046;27;20594;-78
2023/10/22 03:16:29;;;;;;;11.20;9.63;;;;;;;;;;5102414;27;20204;-79
2023/10/22 03:18:56;;;;;;;13.60;10.20;;;;;;;;;;5107207;27;20667;-78
2023/10/22 03:21:25;;;;;;;11.63;9.73;;;;;;;;;;5104659;27;20216;-79
2023/10/22 03:23:52;;;;;;;13.50;10.37;;;;;;;;;;5096344;28;20265;-76
2023/10/22 03:26:19;;;;;;;10.87;9.70;;;;;;;;;;5100758;28;20220;-75
2023/10/22 03:28:50;;;;;;;11.87;10.27;;;;;;;;;;5106562;28;20208;-78
2023/10/22 03:31:18;;;;;;;13.17;11.17;;;;;;;;;;5100558;28;20208;-77
2023/10/22 03:33:46;;;;;;;12.23;10.10;;;;;;;;;;5097057;28;20205;-76
2023/10/22 03:36:15;;;;;;;12.00;10.70;;;;;;;;;;5098821;27;20676;-80
2023/10/22 03:38:43;;;;;;;12.40;11.13;;;;;;;;;;5104560;28;20292;-80
2023/10/22 03:41:11;;;;;;;11.90;10.60;;;;;;;;;;5097034;27;20574;-76
2023/10/22 03:43:38;;;;;;;11.87;10.50;;;;;;;;;;5093321;27;20204;-75
2023/10/22 03:46:05;;;;;;;11.60;9.77;;;;;;;;;;5100835;27;20205;-76
2023/10/22 03:48:33;;;;;;;12.00;9.67;;;;;;;;;;5108173;28;20231;-76
2023/10/22 03:51:00;;;;;;;10.77;9.53;;;;;;;;;;5106322;27;20687;-75
2023/10/22 03:53:27;;;;;;;12.60;10.07;;;;;;;;;;5098243;27;20227;-74
2023/10/22 03:55:55;;;;;;;13.60;9.80;;;;;;;;;;5102177;28;20204;-75
2023/10/22 03:58:23;;;;;;;11.77;9.40;;;;;;;;;;5100882;28;20200;-75
2023/10/22 04:00:55;;;;;;;11.67;8.90;;;;;;;;;;5095059;28;20221;-76
2023/10/22 04:03:22;;;;;;;11.00;9.10;;;;;;;;;;5100493;28;20200;-74
2023/10/22 04:05:56;;;;;;;12.20;9.60;;;;;;;;;;5100990;28;20212;-77
2023/10/22 04:08:24;;;;;;;12.40;8.90;;;;;;;;;;5105056;28;20635;-76
2023/10/22 04:10:52;;;;;;;11.43;8.60;;;;;;;;;;5099334;28;20228;-76
2023/10/22 04:13:19;;;;;;;9.17;8.23;;;;;;;;;;5083439;28;20208;-75
2023/10/22 04:15:48;;;;;;;9.43;8.43;;;;;;;;;;5093508;28;20209;-73
2023/10/22 04:18:17;;;;;;;10.47;8.73;;;;;;;;;;5099296;27;20288;-74
2023/10/22 04:20:44;;;;;;;10.13;7.90;;;;;;;;;;5089684;28;20265;-73
2023/10/22 04:23:11;;;;;;;8.77;7.87;;;;;;;;;;5095700;28;20667;-75
2023/10/22 04:25:40;;;;;;;10.00;8.20;;;;;;;;;;5082539;28;20281;-75
2023/10/22 04:28:08;;;;;;;8.50;7.60;;;;;;;;;;5087352;28;20208;-75
2023/10/22 04:30:38;;;;;;;9.30;8.30;;;;;;;;;;5089130;28;20224;-74
2023/10/22 04:33:06;;;;;;;11.00;7.83;;;;;;;;;;5089104;28;20287;-75
2023/10/22 04:35:34;;;;;;;8.87;7.93;;;;;;;;;;5092191;28;20196;-76
2023/10/22 04:38:03;;;;;;;9.37;8.47;;;;;;;;;;5102271;28;20308;-75
2023/10/22 04:40:33;;;;;;;10.73;9.07;;;;;;;;;;5092185;28;20219;-75
2023/10/22 04:43:01;;;;;;;8.77;7.97;;;;;;;;;;5102565;28;20626;-74
2023/10/22 04:45:28;;;;;;;10.70;8.80;;;;;;;;;;5097561;28;21078;-77
2023/10/22 04:47:55;;;;;;;10.13;9.13;;;;;;;;;;5093301;28;21148;-77
2023/10/22 04:50:26;;;;;;;11.83;8.93;;;;;;;;;;5079677;28;20285;-76
2023/10/22 04:52:53;;;;;;;13.43;9.37;;;;;;;;;;5082513;28;22156;-77
2023/10/22 04:55:21;;;;;;;11.93;9.87;;;;;;;;;;5087624;28;20202;-75
2023/10/22 04:57:48;;;;;;;12.50;9.83;;;;;;;;;;5087475;28;20334;-75
2023/10/22 05:00:16;;;;;;;10.40;9.00;;;;;;;;;;5088668;28;20224;-75
2023/10/22 05:02:43;;;;;;;14.10;9.50;;;;;;;;;;5079989;27;20219;-75
2023/10/22 05:05:11;;;;;;;12.30;9.70;;;;;;;;;;5100982;27;20253;-74
2023/10/22 05:07:39;;;;;;;11.20;9.23;;;;;;;;;;5136412;27;20356;-76
2023/10/22 05:10:06;;;;;;;10.10;9.10;;;;;;;;;;5097491;28;20229;-78
2023/10/22 05:12:33;;;;;;;11.57;9.53;;;;;;;;;;5083685;28;20204;-77
2023/10/22 05:15:01;;;;;;;10.90;9.33;;;;;;;;;;5080632;28;20254;-79
2023/10/22 05:17:29;;;;;;;11.03;9.77;;;;;;;;;;5095303;28;20205;-77
2023/10/22 05:19:56;;;;;;;12.23;9.30;;;;;;;;;;5088756;27;20235;-78
2023/10/22 05:22:24;;;;;;;22.37;13.60;;;;;;;;;;5088530;28;20219;-77
2023/10/22 05:24:51;;;;;;;12.77;10.10;;;;;;;;;;5094164;28;21509;-78
2023/10/22 05:27:19;;;;;;;13.90;11.33;;;;;;;;;;5089085;28;20229;-77
2023/10/22 05:29:46;;;;;;;13.97;10.83;;;;;;;;;;5096810;28;20578;-78
2023/10/22 05:32:17;;;;;;;14.03;11.07;;;;;;;;;;5101087;28;20291;-78
2023/10/22 05:34:46;;;;;;;11.47;10.00;;;;;;;;;;5096731;28;20246;-77
2023/10/22 05:37:13;;;;;;;13.73;9.97;;;;;;;;;;5104592;28;20298;-79
2023/10/22 05:39:41;;;;;;;14.63;10.80;;;;;;;;;;5100022;28;20247;-79
2023/10/22 05:42:08;;;;;;;12.40;9.83;;;;;;;;;;5086350;28;20656;-78
2023/10/22 05:44:36;;;;;;;10.97;9.50;;;;;;;;;;5102478;28;20644;-79
2023/10/22 05:47:04;;;;;;;11.27;9.87;;;;;;;;;;5104716;28;20213;-78
2023/10/22 05:49:32;;;;;;;11.67;9.73;;;;;;;;;;5103415;28;20225;-80
2023/10/22 05:51:59;;;;;;;11.27;9.80;;;;;;;;;;5101563;28;20201;-76
2023/10/22 05:54:26;;;;;;;11.33;10.00;;;;;;;;;;5106993;28;20813;-80
2023/10/22 05:56:54;;;;;;;14.53;12.37;;;;;;;;;;5106513;28;20209;-80
2023/10/22 05:59:21;;;;;;;11.53;9.53;;;;;;;;;;5104780;28;20216;-76
2023/10/22 06:01:49;;;;;;;9.40;8.47;;;;;;;;;;5083939;28;20453;-76
2023/10/22 06:04:16;;;;;;;10.77;8.60;;;;;;;;;;5100189;27;20292;-78
2023/10/22 06:06:44;;;;;;;11.80;8.00;;;;;;;;;;5099099;27;20203;-76
2023/10/22 06:09:12;;;;;;;8.03;7.23;;;;;;;;;;5102339;28;20268;-78
2023/10/22 06:11:39;;;;;;;8.80;7.77;;;;;;;;;;5100965;28;20703;-78
2023/10/22 06:14:07;;;;;;;8.27;7.50;;;;;;;;;;5092675;28;20331;-77
2023/10/22 06:16:37;;;;;;;11.63;8.30;;;;;;;;;;5084273;28;20275;-76
2023/10/22 06:19:04;;;;;;;10.10;8.07;;;;;;;;;;5087712;27;20364;-77
2023/10/22 06:21:31;;;;;;;9.90;8.77;;;;;;;;;;5093485;27;20223;-75
2023/10/22 06:23:59;;;;;;;9.17;7.73;;;;;;;;;;5115078;28;20310;-75
2023/10/22 06:26:26;;;;;;;12.03;8.30;;;;;;;;;;5115406;28;20200;-74
2023/10/22 06:28:53;;;;;;;14.00;8.90;;;;;;;;;;5114895;28;20208;-75
2023/10/22 06:31:21;;;;;;;10.47;8.40;;;;;;;;;;5114925;28;20692;-75
2023/10/22 06:33:48;;;;;;;9.77;8.70;;;;;;;;;;5114981;28;20188;-75
2023/10/22 06:36:17;;;;;;;11.10;8.30;;;;;;;;;;5101994;28;20260;-75
2023/10/22 06:38:45;;;;;;;9.20;7.63;;;;;;;;;;5089613;28;20283;-77
2023/10/22 06:41:22;;;;;;;10.93;8.00;;;;;;;;;;5083451;28;20222;-75
2023/10/22 06:43:50;;;;;;;11.33;8.33;;;;;;;;;;5094753;27;20686;-76
2023/10/22 06:46:18;;;;;;;9.30;8.10;;;;;;;;;;5089312;28;20204;-76
2023/10/22 06:48:57;;;;;;;10.30;8.60;;;;;;;;;;5096424;27;20211;-76
2023/10/22 06:51:24;;;;;;;9.77;8.10;;;;;;;;;;5084048;27;20225;-76
2023/10/22 06:53:52;;;;;;;8.43;7.33;;;;;;;;;;5077366;28;20261;-77
2023/10/22 06:56:19;;;;;;;7.27;6.47;;;;;;;;;;5085808;27;20282;-76
2023/10/22 06:58:46;;;;;;;10.17;9.17;;;;;;;;;;5075336;28;23256;-78
2023/10/22 07:01:14;;;;;;;8.00;6.23;;;;;;;;;;5090947;27;20204;-77
2023/10/22 07:03:43;;;;;;;6.00;5.47;;;;;;;;;;5085967;28;20216;-76
2023/10/22 07:06:11;;;;;;;5.73;5.13;;;;;;;;;;5095328;27;20255;-76
2023/10/22 07:08:38;;;;;;;6.27;5.37;;;;;;;;;;5088279;28;20211;-75
2023/10/22 07:11:06;;;;;;;9.60;5.67;;;;;;;;;;5080088;27;20259;-75
2023/10/22 07:13:33;;;;;;;6.33;5.67;;;;;;;;;;5084020;27;20261;-76
2023/10/22 07:16:00;;;;;;;6.00;5.43;;;;;;;;;;5096955;28;20219;-76
2023/10/22 07:18:31;;;;;;;6.20;5.60;;;;;;;;;;5114236;28;20655;-74
2023/10/22 07:21:00;;;;;;;6.23;5.07;;;;;;;;;;5113460;28;20250;-74
2023/10/22 07:23:31;;;;;;;5.73;5.13;;;;;;;;;;5114051;28;20183;-74
2023/10/22 07:25:59;;;;;;;5.47;5.00;;;;;;;;;;5113684;28;20554;-74
2023/10/22 07:28:26;;;;;;;5.83;4.47;;;;;;;;;;5113660;28;20204;-75
2023/10/22 07:30:53;;;;;;;6.57;4.97;;;;;;;;;;5113272;28;20273;-74
2023/10/22 07:33:21;;;;;;;4.90;4.40;;;;;;;;;;5113553;28;20634;-75
2023/10/22 07:35:55;;;;;;;5.03;4.63;;;;;;;;;;5113222;28;20184;-74
2023/10/22 07:38:29;;;;;;;5.03;4.53;;;;;;;;;;5113378;28;20196;-75
2023/10/22 07:40:57;;;;;;;5.53;4.67;;;;;;;;;;5112816;28;20219;-75
2023/10/22 07:43:25;;;;;;;6.07;4.10;;;;;;;;;;5113263;28;20742;-75
2023/10/22 07:45:52;;;;;;;4.83;4.33;;;;;;;;;;5113071;28;20212;-76
2023/10/22 07:48:20;;;;;;;5.07;3.50;;;;;;;;;;5113551;28;20726;-76
2023/10/22 07:58:38;;;;;;;5.37;2.80;;;;;;;;;;5011813;28;20242;-76
2023/10/22 08:01:06;;;;;;;2.43;2.30;;;;;;;;;;5001367;28;20215;-74
2023/10/22 08:03:34;;;;;;;3.43;2.27;;;;;;;;;;5112811;28;20187;-74
2023/10/22 08:06:02;;;;;;;2.47;2.27;;;;;;;;;;5094998;28;20569;-75
2023/10/22 08:08:33;;;;;;;3.57;2.20;;;;;;;;;;5113035;28;20196;-74
2023/10/22 08:11:02;;;;;;;3.83;2.80;;;;;;;;;;5111672;28;20228;-74
2023/10/22 08:13:30;;;;;;;6.13;3.07;;;;;;;;;;5112403;28;20659;-74
2023/10/22 08:15:57;;;;;;;3.00;2.53;;;;;;;;;;5127366;27;20320;-75
2023/10/22 08:18:25;;;;;;;3.67;2.63;;;;;;;;;;5094462;27;20296;-77
2023/10/22 08:20:52;;;;;;;3.57;2.60;;;;;;;;;;5079066;27;20224;-78
2023/10/22 08:23:19;;;;;;;3.93;2.53;;;;;;;;;;5076936;28;20226;-80
2023/10/22 08:25:51;;;;;;;2.40;2.20;;;;;;;;;;5082818;28;20215;-78
2023/10/22 08:28:18;;;;;;;2.00;1.90;;;;;;;;;;5080470;28;20223;-79
2023/10/22 08:30:46;;;;;;;3.50;2.20;;;;;;;;;;5087745;27;20702;-78
2023/10/22 08:33:14;;;;;;;2.30;2.10;;;;;;;;;;5079164;28;20204;-80
2023/10/22 08:35:41;;;;;;;2.27;2.07;;;;;;;;;;5079634;28;20204;-79
2023/10/22 08:38:08;;;;;;;2.90;2.03;;;;;;;;;;5080411;28;20261;-79
2023/10/22 08:40:43;;;;;;;2.67;1.87;;;;;;;;;;5078895;28;20224;-79
2023/10/22 08:43:15;;;;;;;2.67;1.67;;;;;;;;;;5077733;28;20690;-78
2023/10/22 08:45:46;;;;;;;2.77;1.90;;;;;;;;;;5076912;28;20295;-80
2023/10/22 08:48:15;;;;;;;2.57;2.33;;;;;;;;;;5080619;28;20265;-80
2023/10/22 08:50:44;;;;;;;3.33;1.87;;;;;;;;;;5085030;28;20264;-79
2023/10/22 08:53:12;;;;;;;2.23;1.73;;;;;;;;;;5090032;28;20196;-79
2023/10/22 08:55:44;;;;;;;2.57;1.80;;;;;;;;;;5085884;28;20196;-75
2023/10/22 08:58:13;;;;;;;1.73;1.63;;;;;;;;;;5101935;28;20201;-76
2023/10/22 09:00:45;;;;;;;2.57;1.57;;;;;;;;;;5097866;28;20251;-77
2023/10/22 09:03:25;;;;;;;2.07;1.90;;;;;;;;;;5111374;28;20746;-74
2023/10/22 09:05:53;;;;;;;3.43;1.60;;;;;;;;;;5111922;28;20196;-74
2023/10/22 09:08:20;;;;;;;2.93;2.00;;;;;;;;;;5111990;28;20296;-75
2023/10/22 09:10:48;;;;;;;5.47;1.87;;;;;;;;;;5111650;28;20228;-76
2023/10/22 09:13:20;;;;;;;4.53;1.60;;;;;;;;;;5111698;28;20200;-76
2023/10/22 09:15:48;;;;;;;5.30;1.60;;;;;;;;;;5111996;28;20199;-76
2023/10/22 09:18:17;;;;;;;2.03;1.53;;;;;;;;;;5093730;28;20231;-75
2023/10/22 09:20:45;;;;;;;1.57;1.40;;;;;;;;;;5111381;28;20219;-75
2023/10/22 09:23:17;;;;;;;2.47;1.50;;;;;;;;;;5103860;28;20212;-79
2023/10/22 09:26:08;;;;;;;4.23;1.60;;;;;;;;;;5101027;28;20637;-79
2023/10/22 09:28:35;;;;;;;3.17;1.80;;;;;;;;;;5084398;28;20246;-76
2023/10/22 09:31:03;;;;;;;1.70;1.60;;;;;;;;;;5086810;28;20274;-76
2023/10/22 09:33:34;;;;;;;3.33;1.67;;;;;;;;;;5076858;28;20211;-75
2023/10/22 09:36:03;;;;;;;5.70;2.03;;;;;;;;;;5089684;28;20205;-79
2023/10/22 09:38:41;;;;;;;4.63;1.43;;;;;;;;;;5096340;28;20632;-76
2023/10/22 09:41:08;;;;;;;2.03;1.57;;;;;;;;;;5092027;28;20598;-77
2023/10/22 09:43:35;;;;;;;3.40;1.60;;;;;;;;;;5099752;28;20205;-80
2023/10/22 09:46:03;;;;;;;4.47;1.33;;;;;;;;;;5102468;28;20667;-76
2023/10/22 09:48:33;;;;;;;2.20;1.57;;;;;;;;;;5096781;28;20679;-77
2023/10/22 09:51:04;;;;;;;3.40;1.40;;;;;;;;;;5101658;27;20228;-75
2023/10/22 09:53:37;;;;;;;3.00;1.40;;;;;;;;;;5083831;28;20224;-80
2023/10/22 09:56:06;;;;;;;2.77;1.43;;;;;;;;;;5104066;28;21597;-77
2023/10/22 09:58:40;;;;;;;1.83;1.30;;;;;;;;;;5110364;27;20774;-75
2023/10/22 10:01:11;;;;;;;3.78;1.20;;;;;;;;;;5093214;27;20639;-80
2023/10/22 10:03:40;;;;;;;2.67;1.40;;;;;;;;;;5085075;27;20196;-77
2023/10/22 10:06:09;;;;;;;4.15;1.33;;;;;;;;;;5086666;27;20281;-78
2023/10/22 10:08:37;;;;;;;3.03;1.17;;;;;;;;;;5101632;28;20201;-76
2023/10/22 10:11:09;;;;;;;1.58;1.10;;;;;;;;;;5075158;28;20251;-76
2023/10/22 10:13:36;;;;;;;1.08;1.05;;;;;;;;;;5103188;27;20268;-75
2023/10/22 10:16:07;;;;;;;1.30;1.10;;;;;;;;;;5088986;27;20219;-78
2023/10/22 10:18:52;;;;;;;3.28;1.20;;;;;;;;;;5090205;28;20199;-80
2023/10/22 10:21:40;;;;;;;1.92;1.00;;;;;;;;;;5111987;27;20219;-78
2023/10/22 10:24:17;;;;;;;1.70;1.00;;;;;;;;;;5108791;28;20214;-79
2023/10/22 10:26:47;;;;;;;1.48;0.95;;;;;;;;;;5099705;28;20239;-78
2023/10/22 10:29:21;;;;;;;0.73;0.70;;;;;;;;;;5093104;28;20224;-76
2023/10/22 10:31:50;;;;;;;2.45;1.00;;;;;;;;;;5097018;28;20240;-76
2023/10/22 10:34:22;;;;;;;1.55;1.05;;;;;;;;;;5114401;28;20264;-75
2023/10/22 10:36:50;;;;;;;0.70;0.70;;;;;;;;;;5109054;28;20224;-79
2023/10/22 10:39:36;;;;;;;1.85;0.98;;;;;;;;;;5091874;27;20764;-77
2023/10/22 10:42:03;;;;;;;0.93;0.68;;;;;;;;;;5075168;28;20211;-78
2023/10/22 10:44:31;;;;;;;1.02;0.60;;;;;;;;;;5090548;28;20224;-78
2023/10/22 10:47:17;;;;;;;4.43;0.90;;;;;;;;;;5092429;27;20213;-79
2023/10/22 10:50:02;;;;;;;1.02;0.68;;;;;;;;;;5094560;27;20227;-79
2023/10/22 10:52:49;;;;;;;2.30;0.70;;;;;;;;;;5089387;27;20228;-79
2023/10/22 10:55:16;;;;;;;2.88;0.90;;;;;;;;;;5094996;27;20204;-78
2023/10/22 10:57:48;;;;;;;0.70;0.70;;;;;;;;;;5095474;28;21285;-79
2023/10/22 11:00:24;;;;;;;3.35;0.80;;;;;;;;;;5076873;28;20212;-77
2023/10/22 11:02:52;;;;;;;2.20;0.88;;;;;;;;;;5094473;27;20657;-78
2023/10/22 11:05:37;;;;;;;2.47;1.00;;;;;;;;;;5098570;28;20304;-79
2023/10/22 11:08:18;;;;;;;1.25;0.93;;;;;;;;;;5076826;28;20212;-79
2023/10/22 11:10:46;;;;;;;0.80;0.77;;;;;;;;;;5097414;27;20225;-78
2023/10/22 11:13:13;;;;;;;2.65;1.58;;;;;;;;;;5103007;28;20219;-75
2023/10/22 11:15:40;;;;;;;2.40;0.88;;;;;;;;;;5102096;28;20593;-79
2023/10/22 11:18:10;;;;;;;0.80;0.70;;;;;;;;;;5103240;27;20205;-79
2023/10/22 11:20:38;;;;;;;1.35;0.80;;;;;;;;;;5100056;28;20240;-77
2023/10/22 11:23:18;;;;;;;1.67;0.75;;;;;;;;;;5101868;28;20222;-77
2023/10/22 11:25:46;;;;;;;2.55;0.70;;;;;;;;;;5092766;27;20631;-78
2023/10/22 11:28:14;;;;;;;0.98;0.75;;;;;;;;;;5097110;27;20644;-78
2023/10/22 11:30:41;;;;;;;0.80;0.80;;;;;;;;;;5091980;28;20224;-79
2023/10/22 11:33:19;;;;;;;0.70;0.63;;;;;;;;;;5092897;28;20212;-76
2023/10/22 11:35:46;;;;;;;2.72;0.90;;;;;;;;;;5095358;28;20204;-79
2023/10/22 11:38:21;;;;;;;0.95;0.90;;;;;;;;;;5087900;27;20808;-78
2023/10/22 11:40:53;;;;;;;0.73;0.70;;;;;;;;;;5101006;27;20215;-75
2023/10/22 11:43:23;;;;;;;2.40;0.70;;;;;;;;;;5108501;28;20204;-77
2023/10/22 11:45:54;;;;;;;1.20;0.95;;;;;;;;;;5074846;28;20204;-80
2023/10/22 11:48:23;;;;;;;1.80;0.80;;;;;;;;;;5079347;28;20205;-76
2023/10/22 11:50:58;;;;;;;1.70;0.85;;;;;;;;;;5082197;28;20246;-78
2023/10/22 11:53:29;;;;;;;2.05;0.82;;;;;;;;;;5097232;28;20230;-78
2023/10/22 11:55:56;;;;;;;1.25;0.85;;;;;;;;;;5094800;27;20257;-79
2023/10/22 11:58:25;;;;;;;1.15;0.70;;;;;;;;;;5088335;28;20208;-78
2023/10/22 12:00:55;;;;;;;1.95;0.90;;;;;;;;;;5102170;28;20229;-78
2023/10/22 12:03:24;;;;;;;1.02;0.70;;;;;;;;;;5095460;27;20216;-78
2023/10/22 12:05:57;;;;;;;1.27;0.90;;;;;;;;;;5096307;27;20212;-77
2023/10/22 12:08:27;;;;;;;1.83;0.90;;;;;;;;;;5083894;28;20216;-77
2023/10/22 12:10:54;;;;;;;1.05;0.80;;;;;;;;;;5093112;28;20263;-80
2023/10/22 12:13:22;;;;;;;1.58;0.80;;;;;;;;;;5075693;28;20219;-79
2023/10/22 12:15:49;;;;;;;1.15;0.70;;;;;;;;;;5091102;28;20249;-79
2023/10/22 12:18:17;;;;;;;0.90;0.77;;;;;;;;;;5091172;27;20204;-78
2023/10/22 12:20:47;;;;;;;3.40;1.30;;;;;;;;;;5093742;28;20292;-78
2023/10/22 12:23:14;;;;;;;6.75;4.93;;;;;;;;;;5102317;28;20208;-77
2023/10/22 12:25:42;;;;;;;1.25;1.15;;;;;;;;;;5127302;27;20206;-78
2023/10/22 12:28:09;;;;;;;2.60;1.35;;;;;;;;;;5092415;27;20712;-79
2023/10/22 12:30:37;;;;;;;3.50;1.85;;;;;;;;;;5097488;28;20599;-78
2023/10/22 12:33:04;;;;;;;5.30;1.98;;;;;;;;;;5087555;28;20224;-80
2023/10/22 12:35:34;;;;;;;2.67;1.75;;;;;;;;;;5080035;28;20219;-75
2023/10/22 12:38:07;;;;;;;6.15;3.30;;;;;;;;;;5111771;27;21310;-78
2023/10/22 12:40:35;;;;;;;2.38;1.75;;;;;;;;;;5072365;28;20219;-76
2023/10/22 12:43:04;;;;;;;7.22;3.33;;;;;;;;;;5095273;28;20683;-78
2023/10/22 12:45:31;;;;;;;5.53;5.03;;;;;;;;;;5101576;28;20204;-80
2023/10/22 12:47:58;;;;;;;3.15;1.77;;;;;;;;;;5099158;28;20214;-79
2023/10/22 12:50:26;;;;;;;2.95;2.22;;;;;;;;;;5087908;28;20224;-75
2023/10/22 12:52:53;;;;;;;2.78;0.60;;;;;;;;;;5087851;28;20329;-76
2023/10/22 12:55:20;;;;;;;2.30;1.40;;;;;;;;;;5104058;28;20614;-76
2023/10/22 12:57:48;;;;;;;1.80;1.02;;;;;;;;;;5100589;28;20203;-76
2023/10/22 13:00:15;;;;;;;1.00;0.57;;;;;;;;;;5090609;28;20232;-78
2023/10/22 13:02:45;;;;;;;0.70;0.70;;;;;;;;;;5091789;28;20285;-79
2023/10/22 13:05:12;;;;;;;2.00;0.80;;;;;;;;;;5094752;28;20204;-74
2023/10/22 13:07:40;;;;;;;1.00;0.70;;;;;;;;;;5091450;28;20205;-81
2023/10/22 13:10:07;;;;;;;1.65;0.85;;;;;;;;;;5089672;28;20223;-77
2023/10/22 13:12:35;;;;;;;0.70;0.60;;;;;;;;;;5096396;28;20231;-77
2023/10/22 13:15:17;;;;;;;0.70;0.60;;;;;;;;;;5092281;28;20261;-74
2023/10/22 13:17:45;;;;;;;7.28;2.60;;;;;;;;;;5071433;28;20204;-79
2023/10/22 13:20:12;;;;;;;3.20;2.13;;;;;;;;;;5096295;28;20711;-79
2023/10/22 13:22:39;;;;;;;1.40;0.70;;;;;;;;;;5091569;28;20208;-78
2023/10/22 13:25:07;;;;;;;1.67;0.80;;;;;;;;;;5079587;28;20266;-77
2023/10/22 13:27:34;;;;;;;2.10;0.65;;;;;;;;;;5084122;28;20226;-77
2023/10/22 13:30:02;;;;;;;3.75;1.45;;;;;;;;;;5100275;27;20216;-77
2023/10/22 13:32:29;;;;;;;3.10;1.92;;;;;;;;;;5096431;27;20223;-77
2023/10/22 13:34:57;;;;;;;1.75;0.80;;;;;;;;;;5100721;28;20560;-79
2023/10/22 13:37:25;;;;;;;1.75;0.85;;;;;;;;;;5098341;28;20691;-77
2023/10/22 13:39:52;;;;;;;1.38;0.88;;;;;;;;;;5095802;28;20220;-74
2023/10/22 13:42:20;;;;;;;0.98;0.63;;;;;;;;;;5104403;27;20199;-77
2023/10/22 13:44:49;;;;;;;1.50;0.70;;;;;;;;;;5087252;28;21186;-78
2023/10/22 13:47:17;;;;;;;1.13;0.88;;;;;;;;;;5078597;28;20203;-78
2023/10/22 13:49:44;;;;;;;0.90;0.70;;;;;;;;;;5096700;27;20233;-78
2023/10/22 13:52:12;;;;;;;1.73;0.90;;;;;;;;;;5082230;27;20238;-79
2023/10/22 13:54:39;;;;;;;1.38;0.85;;;;;;;;;;5090726;28;20644;-75
2023/10/22 13:57:07;;;;;;;0.90;0.90;;;;;;;;;;5116427;27;20294;-75
2023/10/22 13:59:37;;;;;;;1.38;1.00;;;;;;;;;;5103031;28;20219;-76
2023/10/22 14:02:04;;;;;;;0.80;0.80;;;;;;;;;;5082931;28;20201;-79
2023/10/22 14:04:31;;;;;;;2.17;1.90;;;;;;;;;;5094231;27;20579;-78
2023/10/22 14:06:59;;;;;;;4.32;3.30;;;;;;;;;;5093564;27;20196;-75
2023/10/22 14:09:26;;;;;;;2.67;1.00;;;;;;;;;;5107595;28;20316;-75
2023/10/22 14:11:54;;;;;;;3.25;1.10;;;;;;;;;;5096369;27;20242;-79
2023/10/22 14:14:23;;;;;;;6.53;1.40;;;;;;;;;;5083167;28;20203;-78
2023/10/22 14:16:57;;;;;;;2.63;0.98;;;;;;;;;;5094760;28;20193;-76
2023/10/22 14:19:24;;;;;;;3.28;1.20;;;;;;;;;;5076225;28;20274;-75
2023/10/22 14:21:52;;;;;;;2.00;1.42;;;;;;;;;;5134408;27;20706;-76
2023/10/22 14:24:21;;;;;;;1.38;0.80;;;;;;;;;;5110828;27;20193;-78
2023/10/22 14:26:48;;;;;;;0.95;0.90;;;;;;;;;;5091114;27;20292;-78
2023/10/22 14:29:35;;;;;;;6.57;4.32;;;;;;;;;;5076679;28;20220;-78
2023/10/22 14:32:03;;;;;;;1.45;0.82;;;;;;;;;;5093752;28;20236;-76
2023/10/22 14:34:30;;;;;;;1.60;1.00;;;;;;;;;;5086282;28;20269;-75
2023/10/22 14:36:57;;;;;;;1.63;1.00;;;;;;;;;;5073770;28;20197;-79
2023/10/22 14:39:25;;;;;;;1.73;0.70;;;;;;;;;;5092481;27;20257;-76
2023/10/22 14:41:56;;;;;;;1.38;0.80;;;;;;;;;;5076939;28;20203;-75
2023/10/22 14:44:23;;;;;;;1.30;1.10;;;;;;;;;;5098608;27;20196;-78
2023/10/22 14:46:50;;;;;;;1.05;0.82;;;;;;;;;;5096854;28;20220;-78
2023/10/22 14:49:18;;;;;;;0.70;0.70;;;;;;;;;;5097308;27;20223;-77
2023/10/22 14:51:45;;;;;;;1.70;1.10;;;;;;;;;;5096653;27;20551;-77
2023/10/22 14:54:12;;;;;;;2.63;1.08;;;;;;;;;;5104629;27;20657;-77